sensor_id;sensor_type;location;lat;lon;timestamp;pressure;altitude;pressure_sealevel;temperature;humidity
18755;BME280;35061;47.664;9.166;2023-04-10T00:02:14;102121.52;;;6.22;66.97
18755;BME280;35061;47.664;9.166;2023-04-10T00:04:42;102134.93;;;6.21;66.98
18755;BME280;35061;47.664;9.166;2023-04-10T00:07:11;102133.33;;;6.20;66.97
18755;BME280;35061;47.664;9.166;2023-04-10T00:09:39;102139.48;;;6.15;67.84
18755;BME280;35061;47.664;9.166;2023-04-10T00:12:07;102133.10;;;6.07;68.31
18755;BME280;35061;47.664;9.166;2023-04-10T00:14:35;102143.70;;;6.07;68.03
18755;BME280;35061;47.664;9.166;2023-04-10T00:17:03;102138.86;;;6.04;67.97
18755;BME280;35061;47.664;9.166;2023-04-10T00:19:31;102140.91;;;5.99;68.16
18755;BME280;35061;47.664;9.166;2023-04-10T00:21:59;102137.32;;;5.95;68.25
18755;BME280;35061;47.664;9.166;2023-04-10T00:24:27;102141.51;;;5.87;68.50
18755;BME280;35061;47.664;9.166;2023-04-10T00:26:55;102132.64;;;5.81;70.04
18755;BME280;35061;47.664;9.166;2023-04-10T00:29:24;102135.16;;;5.76;69.31
18755;BME280;35061;47.664;9.166;2023-04-10T00:31:52;102129.47;;;5.76;69.38
18755;BME280;35061;47.664;9.166;2023-04-10T00:34:20;102125.09;;;5.71;69.33
18755;BME280;35061;47.664;9.166;2023-04-10T00:36:48;102122.18;;;5.75;69.44
18755;BME280;35061;47.664;9.166;2023-04-10T00:39:16;102123.78;;;5.76;69.45
18755;BME280;35061;47.664;9.166;2023-04-10T00:41:44;102115.67;;;5.74;69.48
18755;BME280;35061;47.664;9.166;2023-04-10T00:44:11;102118.91;;;5.76;70.08
18755;BME280;35061;47.664;9.166;2023-04-10T00:46:40;102112.80;;;5.78;70.14
18755;BME280;35061;47.664;9.166;2023-04-10T00:49:08;102107.07;;;5.81;70.01
18755;BME280;35061;47.664;9.166;2023-04-10T00:51:36;102107.07;;;5.81;69.73
18755;BME280;35061;47.664;9.166;2023-04-10T00:54:04;102111.52;;;5.82;69.93
18755;BME280;35061;47.664;9.166;2023-04-10T00:56:33;102109.10;;;5.81;69.64
18755;BME280;35061;47.664;9.166;2023-04-10T00:59:02;102109.95;;;5.78;69.67
18755;BME280;35061;47.664;9.166;2023-04-10T01:01:32;102103.90;;;5.76;69.72
18755;BME280;35061;47.664;9.166;2023-04-10T01:04:01;102106.29;;;5.77;69.96
18755;BME280;35061;47.664;9.166;2023-04-10T01:06:39;102098.63;;;5.74;69.57
18755;BME280;35061;47.664;9.166;2023-04-10T01:09:23;102102.33;;;5.71;69.77
18755;BME280;35061;47.664;9.166;2023-04-10T01:12:07;102097.88;;;5.70;70.49
18755;BME280;35061;47.664;9.166;2023-04-10T01:15:12;102102.33;;;5.71;70.93
18755;BME280;35061;47.664;9.166;2023-04-10T01:20:23;102097.13;;;5.66;70.47
18755;BME280;35061;47.664;9.166;2023-04-10T01:23:25;102098.80;;;5.63;70.67
18755;BME280;35061;47.664;9.166;2023-04-10T01:26:02;102102.46;;;5.60;70.47
18755;BME280;35061;47.664;9.166;2023-04-10T01:31:19;102099.84;;;5.45;70.53
18755;BME280;35061;47.664;9.166;2023-04-10T01:33:56;102099.98;;;5.35;71.45
18755;BME280;35061;47.664;9.166;2023-04-10T01:36:27;102100.89;;;5.24;71.01
18755;BME280;35061;47.664;9.166;2023-04-10T01:38:57;102102.66;;;5.14;70.73
18755;BME280;35061;47.664;9.166;2023-04-10T01:41:27;102099.48;;;5.09;70.65
18755;BME280;35061;47.664;9.166;2023-04-10T01:43:56;102102.72;;;5.07;71.00
18755;BME280;35061;47.664;9.166;2023-04-10T01:46:26;102096.67;;;5.05;71.16
18755;BME280;35061;47.664;9.166;2023-04-10T01:48:58;102099.52;;;5.05;71.24
18755;BME280;35061;47.664;9.166;2023-04-10T01:51:29;102092.65;;;5.02;71.49
18755;BME280;35061;47.664;9.166;2023-04-10T01:53:59;102089.48;;;4.97;71.27
18755;BME280;35061;47.664;9.166;2023-04-10T01:56:29;102084.15;;;4.99;71.79
18755;BME280;35061;47.664;9.166;2023-04-10T01:58:58;102088.63;;;5.00;71.61
18755;BME280;35061;47.664;9.166;2023-04-10T02:01:26;102097.55;;;4.98;71.71
18755;BME280;35061;47.664;9.166;2023-04-10T02:03:57;102088.66;;;4.96;71.86
18755;BME280;35061;47.664;9.166;2023-04-10T02:06:44;102093.14;;;4.94;71.95
18755;BME280;35061;47.664;9.166;2023-04-10T02:09:22;102090.33;;;4.94;72.21
18755;BME280;35061;47.664;9.166;2023-04-10T02:12:12;102076.89;;;4.98;72.66
18755;BME280;35061;47.664;9.166;2023-04-10T02:14:45;102080.52;;;4.98;73.14
18755;BME280;35061;47.664;9.166;2023-04-10T02:17:15;102075.26;;;4.97;72.50
18755;BME280;35061;47.664;9.166;2023-04-10T02:19:46;102071.20;;;4.98;72.55
18755;BME280;35061;47.664;9.166;2023-04-10T02:22:15;102075.26;;;4.97;72.38
18755;BME280;35061;47.664;9.166;2023-04-10T02:24:43;102085.00;;;4.96;72.48
18755;BME280;35061;47.664;9.166;2023-04-10T02:27:12;102082.65;;;4.91;72.38
18755;BME280;35061;47.664;9.166;2023-04-10T02:29:40;102087.26;;;4.77;73.83
18755;BME280;35061;47.664;9.166;2023-04-10T02:32:08;102090.98;;;4.67;73.23
18755;BME280;35061;47.664;9.166;2023-04-10T02:34:36;102087.02;;;4.60;72.87
18755;BME280;35061;47.664;9.166;2023-04-10T02:37:03;102089.15;;;4.49;74.01
18755;BME280;35061;47.664;9.166;2023-04-10T02:39:31;102087.59;;;4.44;73.30
18755;BME280;35061;47.664;9.166;2023-04-10T02:41:59;102084.34;;;4.42;73.41
18755;BME280;35061;47.664;9.166;2023-04-10T02:44:27;102082.35;;;4.39;73.44
18755;BME280;35061;47.664;9.166;2023-04-10T02:46:55;102094.09;;;4.41;73.70
18755;BME280;35061;47.664;9.166;2023-04-10T02:49:23;102088.43;;;4.41;73.81
18755;BME280;35061;47.664;9.166;2023-04-10T02:51:51;102085.98;;;4.43;73.60
18755;BME280;35061;47.664;9.166;2023-04-10T02:54:19;102088.79;;;4.47;73.82
18755;BME280;35061;47.664;9.166;2023-04-10T02:56:48;102078.20;;;4.51;73.92
18755;BME280;35061;47.664;9.166;2023-04-10T02:59:16;102079.84;;;4.49;73.65
18755;BME280;35061;47.664;9.166;2023-04-10T03:01:45;102085.88;;;4.51;73.86
18755;BME280;35061;47.664;9.166;2023-04-10T03:04:14;102086.34;;;4.45;73.39
18755;BME280;35061;47.664;9.166;2023-04-10T03:06:42;102078.33;;;4.37;73.29
18755;BME280;35061;47.664;9.166;2023-04-10T03:09:10;102077.55;;;4.32;73.58
18755;BME280;35061;47.664;9.166;2023-04-10T03:11:38;102077.55;;;4.32;74.11
18755;BME280;35061;47.664;9.166;2023-04-10T03:14:07;102077.91;;;4.38;74.03
18755;BME280;35061;47.664;9.166;2023-04-10T03:16:36;102084.02;;;4.37;73.78
18755;BME280;35061;47.664;9.166;2023-04-10T03:19:04;102080.75;;;4.35;73.98
18755;BME280;35061;47.664;9.166;2023-04-10T03:21:32;102081.96;;;4.37;73.90
18755;BME280;35061;47.664;9.166;2023-04-10T03:24:00;102079.96;;;4.34;73.96
18755;BME280;35061;47.664;9.166;2023-04-10T03:26:29;102090.10;;;4.31;73.62
18755;BME280;35061;47.664;9.166;2023-04-10T03:28:57;102093.86;;;4.21;73.66
18755;BME280;35061;47.664;9.166;2023-04-10T03:31:25;102104.06;;;4.11;73.78
18755;BME280;35061;47.664;9.166;2023-04-10T03:33:53;102108.22;;;3.96;74.14
18755;BME280;35061;47.664;9.166;2023-04-10T03:36:22;102119.23;;;3.83;74.39
18755;BME280;35061;47.664;9.166;2023-04-10T03:38:50;102124.14;;;3.75;75.00
18755;BME280;35061;47.664;9.166;2023-04-10T03:41:19;102116.09;;;3.66;75.05
18755;BME280;35061;47.664;9.166;2023-04-10T03:43:50;102121.79;;;3.55;74.82
18755;BME280;35061;47.664;9.166;2023-04-10T03:46:19;102120.25;;;3.43;77.07
18755;BME280;35061;47.664;9.166;2023-04-10T03:48:47;102117.47;;;3.32;79.15
18755;BME280;35061;47.664;9.166;2023-04-10T03:51:16;102112.23;;;3.27;77.79
18755;BME280;35061;47.664;9.166;2023-04-10T03:53:44;102119.53;;;3.21;77.81
18755;BME280;35061;47.664;9.166;2023-04-10T03:56:12;102117.11;;;3.19;78.60
18755;BME280;35061;47.664;9.166;2023-04-10T03:58:40;102114.69;;;3.25;78.04
18755;BME280;35061;47.664;9.166;2023-04-10T04:01:08;102113.45;;;3.30;77.69
18755;BME280;35061;47.664;9.166;2023-04-10T04:03:36;102105.73;;;3.30;77.31
18755;BME280;35061;47.664;9.166;2023-04-10T04:06:04;102107.37;;;3.28;77.42
18755;BME280;35061;47.664;9.166;2023-04-10T04:08:32;102098.47;;;3.33;77.92
18755;BME280;35061;47.664;9.166;2023-04-10T04:11:02;102096.02;;;3.35;77.39
18755;BME280;35061;47.664;9.166;2023-04-10T04:13:30;102097.20;;;3.41;78.25
18755;BME280;35061;47.664;9.166;2023-04-10T04:15:58;102096.74;;;3.50;78.10
18755;BME280;35061;47.664;9.166;2023-04-10T04:18:26;102094.32;;;3.52;77.23
18755;BME280;35061;47.664;9.166;2023-04-10T04:20:54;102095.98;;;3.46;77.12
18755;BME280;35061;47.664;9.166;2023-04-10T04:23:22;102097.59;;;3.43;77.35
18755;BME280;35061;47.664;9.166;2023-04-10T04:25:50;102100.83;;;3.42;77.21
18755;BME280;35061;47.664;9.166;2023-04-10T04:28:19;102102.07;;;3.37;77.26
18755;BME280;35061;47.664;9.166;2023-04-10T04:30:47;102094.77;;;3.40;77.81
18755;BME280;35061;47.664;9.166;2023-04-10T04:33:15;102101.64;;;3.42;77.69
18755;BME280;35061;47.664;9.166;2023-04-10T04:35:43;102094.74;;;3.47;78.00
18755;BME280;35061;47.664;9.166;2023-04-10T04:38:11;102096.74;;;3.54;77.67
18755;BME280;35061;47.664;9.166;2023-04-10T04:40:38;102101.97;;;3.59;77.70
18755;BME280;35061;47.664;9.166;2023-04-10T04:43:06;102093.47;;;3.59;77.58
18755;BME280;35061;47.664;9.166;2023-04-10T04:45:34;102097.03;;;3.70;77.90
18755;BME280;35061;47.664;9.166;2023-04-10T04:48:02;102091.37;;;3.70;77.35
18755;BME280;35061;47.664;9.166;2023-04-10T04:50:30;102100.66;;;3.74;77.69
18755;BME280;35061;47.664;9.166;2023-04-10T04:52:59;102101.45;;;3.79;77.32
18755;BME280;35061;47.664;9.166;2023-04-10T04:55:27;102097.36;;;3.87;77.67
18755;BME280;35061;47.664;9.166;2023-04-10T04:57:55;102099.32;;;3.94;77.17
18755;BME280;35061;47.664;9.166;2023-04-10T05:00:23;102103.38;;;3.96;77.14
18755;BME280;35061;47.664;9.166;2023-04-10T05:02:50;102093.60;;;4.01;76.95
18755;BME280;35061;47.664;9.166;2023-04-10T05:05:18;102101.28;;;4.04;76.70
18755;BME280;35061;47.664;9.166;2023-04-10T05:07:46;102106.55;;;4.05;76.98
18755;BME280;35061;47.664;9.166;2023-04-10T05:10:14;102113.02;;;4.02;76.43
18755;BME280;35061;47.664;9.166;2023-04-10T05:12:42;102113.80;;;4.07;76.70
18755;BME280;35061;47.664;9.166;2023-04-10T05:15:10;102107.70;;;4.12;76.70
18755;BME280;35061;47.664;9.166;2023-04-10T05:17:38;102108.87;;;4.18;76.61
18755;BME280;35061;47.664;9.166;2023-04-10T05:20:06;102112.47;;;4.22;76.46
18755;BME280;35061;47.664;9.166;2023-04-10T05:22:34;102112.83;;;4.28;76.31
18755;BME280;35061;47.664;9.166;2023-04-10T05:25:03;102110.44;;;4.26;76.17
18755;BME280;35061;47.664;9.166;2023-04-10T05:27:31;102108.41;;;4.23;76.07
18755;BME280;35061;47.664;9.166;2023-04-10T05:29:59;102097.06;;;4.23;76.01
18755;BME280;35061;47.664;9.166;2023-04-10T05:32:27;102102.36;;;4.21;76.08
18755;BME280;35061;47.664;9.166;2023-04-10T05:34:55;102107.63;;;4.23;76.10
18755;BME280;35061;47.664;9.166;2023-04-10T05:37:22;102112.86;;;4.24;76.49
18755;BME280;35061;47.664;9.166;2023-04-10T05:39:50;102112.80;;;4.31;76.60
18755;BME280;35061;47.664;9.166;2023-04-10T05:42:18;102122.18;;;4.25;76.03
18755;BME280;35061;47.664;9.166;2023-04-10T05:44:49;102124.99;;;4.28;76.43
18755;BME280;35061;47.664;9.166;2023-04-10T05:47:17;102125.77;;;4.32;76.14
18755;BME280;35061;47.664;9.166;2023-04-10T05:49:45;102128.23;;;4.30;75.69
18755;BME280;35061;47.664;9.166;2023-04-10T05:52:13;102133.88;;;4.30;75.94
18755;BME280;35061;47.664;9.166;2023-04-10T05:54:41;102135.48;;;4.31;75.79
18755;BME280;35061;47.664;9.166;2023-04-10T05:57:09;102133.49;;;4.28;75.58
18755;BME280;35061;47.664;9.166;2023-04-10T05:59:37;102138.37;;;4.24;76.28
18755;BME280;35061;47.664;9.166;2023-04-10T06:02:05;102141.67;;;4.23;75.79
18755;BME280;35061;47.664;9.166;2023-04-10T06:04:33;102137.22;;;4.18;75.83
18755;BME280;35061;47.664;9.166;2023-04-10T06:07:02;102141.70;;;4.15;76.07
18755;BME280;35061;47.664;9.166;2023-04-10T06:09:30;102148.60;;;4.14;76.38
18755;BME280;35061;47.664;9.166;2023-04-10T06:11:57;102152.20;;;4.18;76.28
18755;BME280;35061;47.664;9.166;2023-04-10T06:14:25;102149.78;;;4.21;76.60
18755;BME280;35061;47.664;9.166;2023-04-10T06:16:53;102149.71;;;4.28;76.97
18755;BME280;35061;47.664;9.166;2023-04-10T06:19:21;102150.07;;;4.30;77.16
18755;BME280;35061;47.664;9.166;2023-04-10T06:21:49;102156.55;;;4.34;77.05
18755;BME280;35061;47.664;9.166;2023-04-10T06:24:19;102156.05;;;4.43;76.87
18755;BME280;35061;47.664;9.166;2023-04-10T06:26:47;102154.39;;;4.53;76.86
18755;BME280;35061;47.664;9.166;2023-04-10T06:29:15;102151.05;;;4.61;76.88
18755;BME280;35061;47.664;9.166;2023-04-10T06:31:43;102153.48;;;4.63;76.88
18755;BME280;35061;47.664;9.166;2023-04-10T06:34:11;102147.33;;;4.72;76.90
18755;BME280;35061;47.664;9.166;2023-04-10T06:36:39;102143.20;;;4.77;76.72
18755;BME280;35061;47.664;9.166;2023-04-10T06:39:07;102146.77;;;4.84;76.55
18755;BME280;35061;47.664;9.166;2023-04-10T06:41:35;102145.07;;;4.94;76.33
18755;BME280;35061;47.664;9.166;2023-04-10T06:44:03;102144.94;;;5.05;76.12
18755;BME280;35061;47.664;9.166;2023-04-10T06:46:31;102141.99;;;5.16;75.92
18755;BME280;35061;47.664;9.166;2023-04-10T06:48:59;102143.56;;;5.21;75.84
18755;BME280;35061;47.664;9.166;2023-04-10T06:51:27;102136.17;;;5.27;75.76
18755;BME280;35061;47.664;9.166;2023-04-10T06:53:55;102143.80;;;5.34;75.77
18755;BME280;35061;47.664;9.166;2023-04-10T06:56:23;102138.86;;;5.41;75.60
18755;BME280;35061;47.664;9.166;2023-04-10T06:58:50;102141.21;;;5.47;75.55
18755;BME280;35061;47.664;9.166;2023-04-10T07:01:19;102141.57;;;5.52;75.44
18755;BME280;35061;47.664;9.166;2023-04-10T07:03:47;102134.60;;;5.57;75.37
18755;BME280;35061;47.664;9.166;2023-04-10T07:06:14;102135.36;;;5.61;75.13
18755;BME280;35061;47.664;9.166;2023-04-10T07:08:43;102132.41;;;5.68;75.00
18755;BME280;35061;47.664;9.166;2023-04-10T07:11:11;102127.87;;;5.75;74.94
18755;BME280;35061;47.664;9.166;2023-04-10T07:13:38;102124.11;;;5.81;74.63
18755;BME280;35061;47.664;9.166;2023-04-10T07:16:07;102124.83;;;5.89;74.24
18755;BME280;35061;47.664;9.166;2023-04-10T07:18:36;102130.78;;;5.98;74.26
18755;BME280;35061;47.664;9.166;2023-04-10T07:21:11;102133.92;;;6.08;73.94
18755;BME280;35061;47.664;9.166;2023-04-10T07:23:39;102128.10;;;6.15;73.58
18755;BME280;35061;47.664;9.166;2023-04-10T07:26:07;102123.91;;;6.23;73.04
18755;BME280;35061;47.664;9.166;2023-04-10T07:28:35;102115.70;;;6.29;73.12
18755;BME280;35061;47.664;9.166;2023-04-10T07:31:05;102119.17;;;6.40;72.97
18755;BME280;35061;47.664;9.166;2023-04-10T07:33:34;102109.62;;;6.51;72.85
18755;BME280;35061;47.664;9.166;2023-04-10T07:36:03;102119.30;;;6.57;72.21
18755;BME280;35061;47.664;9.166;2023-04-10T07:38:32;102111.26;;;6.96;72.80
18755;BME280;35061;47.664;9.166;2023-04-10T07:41:00;102111.26;;;6.96;70.46
18755;BME280;35061;47.664;9.166;2023-04-10T07:43:28;102107.92;;;7.21;71.67
18755;BME280;35061;47.664;9.166;2023-04-10T07:45:57;102107.56;;;7.76;71.42
18755;BME280;35061;47.664;9.166;2023-04-10T07:48:24;102105.21;;;8.24;69.38
18755;BME280;35061;47.664;9.166;2023-04-10T07:50:52;102101.09;;;8.26;69.02
18755;BME280;35061;47.664;9.166;2023-04-10T07:53:20;102099.42;;;8.28;67.89
18755;BME280;35061;47.664;9.166;2023-04-10T07:55:48;102102.27;;;8.28;67.51
18755;BME280;35061;47.664;9.166;2023-04-10T07:58:16;102102.52;;;8.34;67.13
18755;BME280;35061;47.664;9.166;2023-04-10T08:00:44;102101.28;;;8.35;67.04
18755;BME280;35061;47.664;9.166;2023-04-10T08:03:13;102116.36;;;8.35;66.75
18755;BME280;35061;47.664;9.166;2023-04-10T08:05:42;102106.29;;;8.31;66.24
18755;BME280;35061;47.664;9.166;2023-04-10T08:08:10;102104.69;;;8.30;65.76
18755;BME280;35061;47.664;9.166;2023-04-10T08:10:38;102101.02;;;8.29;65.55
18755;BME280;35061;47.664;9.166;2023-04-10T08:13:06;102106.65;;;8.33;65.37
18755;BME280;35061;47.664;9.166;2023-04-10T08:15:34;102104.49;;;8.37;65.49
18755;BME280;35061;47.664;9.166;2023-04-10T08:18:02;102109.66;;;8.42;65.11
18755;BME280;35061;47.664;9.166;2023-04-10T08:20:30;102102.62;;;8.47;65.06
18755;BME280;35061;47.664;9.166;2023-04-10T08:23:03;102100.89;;;8.49;64.87
18755;BME280;35061;47.664;9.166;2023-04-10T08:25:46;102113.97;;;8.50;64.65
18755;BME280;35061;47.664;9.166;2023-04-10T08:28:13;102115.93;;;8.54;64.08
18755;BME280;35061;47.664;9.166;2023-04-10T08:30:42;102116.62;;;8.58;63.77
18755;BME280;35061;47.664;9.166;2023-04-10T08:33:10;102121.46;;;8.61;63.73
18755;BME280;35061;47.664;9.166;2023-04-10T08:35:37;102114.85;;;8.64;63.54
18755;BME280;35061;47.664;9.166;2023-04-10T08:38:05;102112.60;;;8.72;63.25
18755;BME280;35061;47.664;9.166;2023-04-10T08:40:39;102113.02;;;8.70;62.66
18755;BME280;35061;47.664;9.166;2023-04-10T08:43:07;102110.54;;;8.72;62.70
18755;BME280;35061;47.664;9.166;2023-04-10T08:45:35;102111.95;;;8.80;62.34
18755;BME280;35061;47.664;9.166;2023-04-10T08:48:04;102106.05;;;8.88;62.51
18755;BME280;35061;47.664;9.166;2023-04-10T08:50:40;102109.06;;;8.97;62.55
18755;BME280;35061;47.664;9.166;2023-04-10T08:53:11;102111.26;;;9.06;62.19
18755;BME280;35061;47.664;9.166;2023-04-10T08:55:40;102106.52;;;9.16;62.07
18755;BME280;35061;47.664;9.166;2023-04-10T08:58:09;102102.20;;;9.24;62.03
18755;BME280;35061;47.664;9.166;2023-04-10T09:00:38;102106.41;;;9.32;61.65
18755;BME280;35061;47.664;9.166;2023-04-10T09:03:09;102106.22;;;9.40;61.43
18755;BME280;35061;47.664;9.166;2023-04-10T09:05:41;102104.42;;;9.46;61.16
18755;BME280;35061;47.664;9.166;2023-04-10T09:08:10;102102.59;;;9.52;61.20
18755;BME280;35061;47.664;9.166;2023-04-10T09:10:38;102095.17;;;9.55;60.91
18755;BME280;35061;47.664;9.166;2023-04-10T09:13:06;102103.05;;;9.63;60.43
18755;BME280;35061;47.664;9.166;2023-04-10T09:15:59;102099.65;;;9.69;60.45
18755;BME280;35061;47.664;9.166;2023-04-10T09:18:48;102092.55;;;9.73;59.44
18755;BME280;35061;47.664;9.166;2023-04-10T09:21:20;102085.91;;;9.76;59.26
18755;BME280;35061;47.664;9.166;2023-04-10T09:23:59;102090.36;;;9.77;59.48
18755;BME280;35061;47.664;9.166;2023-04-10T09:26:29;102098.83;;;9.81;59.04
18755;BME280;35061;47.664;9.166;2023-04-10T09:29:01;102093.34;;;9.87;58.93
18755;BME280;35061;47.664;9.166;2023-04-10T09:31:32;102093.57;;;9.93;58.69
18755;BME280;35061;47.664;9.166;2023-04-10T09:34:17;102083.95;;;9.99;57.81
18755;BME280;35061;47.664;9.166;2023-04-10T09:36:58;102087.38;;;10.07;57.02
18755;BME280;35061;47.664;9.166;2023-04-10T09:39:37;102091.93;;;10.17;56.53
18755;BME280;35061;47.664;9.166;2023-04-10T09:42:09;102082.32;;;10.24;56.33
18755;BME280;35061;47.664;9.166;2023-04-10T09:44:41;102089.88;;;10.31;56.08
18755;BME280;35061;47.664;9.166;2023-04-10T09:49:54;102075.65;;;10.40;53.72
18755;BME280;35061;47.664;9.166;2023-04-10T09:54:54;102064.66;;;10.52;53.15
18755;BME280;35061;47.664;9.166;2023-04-10T09:57:24;102052.95;;;10.59;52.77
18755;BME280;35061;47.664;9.166;2023-04-10T09:59:54;102056.71;;;10.69;52.50
18755;BME280;35061;47.664;9.166;2023-04-10T10:02:24;102052.66;;;10.79;51.66
18755;BME280;35061;47.664;9.166;2023-04-10T10:04:53;102040.88;;;10.86;51.66
18755;BME280;35061;47.664;9.166;2023-04-10T10:07:22;102045.92;;;10.95;51.19
18755;BME280;35061;47.664;9.166;2023-04-10T10:09:51;102035.30;;;11.05;50.54
18755;BME280;35061;47.664;9.166;2023-04-10T10:15:08;102033.98;;;11.19;49.37
18755;BME280;35061;47.664;9.166;2023-04-10T10:17:44;102018.88;;;11.28;48.66
18755;BME280;35061;47.664;9.166;2023-04-10T10:20:17;102002.86;;;11.40;48.64
18755;BME280;35061;47.664;9.166;2023-04-10T10:22:45;102005.63;;;11.53;49.21
18755;BME280;35061;47.664;9.166;2023-04-10T10:25:14;102002.30;;;11.64;48.91
18755;BME280;35061;47.664;9.166;2023-04-10T10:27:43;101991.51;;;11.77;48.80
18755;BME280;35061;47.664;9.166;2023-04-10T10:30:13;101993.14;;;11.87;48.28
18755;BME280;35061;47.664;9.166;2023-04-10T10:32:57;101986.64;;;11.96;48.02
18755;BME280;35061;47.664;9.166;2023-04-10T10:35:26;101987.45;;;12.06;48.05
18755;BME280;35061;47.664;9.166;2023-04-10T10:37:59;101987.48;;;12.16;47.68
18755;BME280;35061;47.664;9.166;2023-04-10T10:40:40;101976.99;;;12.22;47.87
18755;BME280;35061;47.664;9.166;2023-04-10T10:43:35;101972.34;;;12.34;47.32
18755;BME280;35061;47.664;9.166;2023-04-10T10:46:05;101971.89;;;12.45;47.62
18755;BME280;35061;47.664;9.166;2023-04-10T10:48:33;101966.76;;;12.58;46.55
18755;BME280;35061;47.664;9.166;2023-04-10T10:51:01;101963.71;;;12.71;47.36
18755;BME280;35061;47.664;9.166;2023-04-10T10:53:38;101959.04;;;12.83;47.45
18755;BME280;35061;47.664;9.166;2023-04-10T10:58:54;101962.21;;;13.04;46.09
18755;BME280;35061;47.664;9.166;2023-04-10T11:01:24;101953.25;;;13.11;46.65
18755;BME280;35061;47.664;9.166;2023-04-10T11:03:52;101956.09;;;13.20;46.59
18755;BME280;35061;47.664;9.166;2023-04-10T11:06:47;101947.73;;;13.32;46.37
18755;BME280;35061;47.664;9.166;2023-04-10T11:09:43;101943.05;;;13.44;45.25
18755;BME280;35061;47.664;9.166;2023-04-10T11:12:13;101935.20;;;13.53;45.00
18755;BME280;35061;47.664;9.166;2023-04-10T11:14:42;101933.04;;;13.63;45.64
18755;BME280;35061;47.664;9.166;2023-04-10T11:17:11;101928.82;;;13.74;45.44
18755;BME280;35061;47.664;9.166;2023-04-10T11:20:08;101922.71;;;13.81;44.77
18755;BME280;35061;47.664;9.166;2023-04-10T11:23:06;101908.84;;;13.94;43.92
18755;BME280;35061;47.664;9.166;2023-04-10T11:25:51;101909.89;;;14.06;44.36
18755;BME280;35061;47.664;9.166;2023-04-10T11:31:19;101916.49;;;14.22;44.38
18755;BME280;35061;47.664;9.166;2023-04-10T11:36:24;101913.42;;;14.26;44.55
18755;BME280;35061;47.664;9.166;2023-04-10T11:39:02;101911.33;;;14.26;44.51
18755;BME280;35061;47.664;9.166;2023-04-10T11:41:34;101916.40;;;14.31;44.11
18755;BME280;35061;47.664;9.166;2023-04-10T11:44:08;101909.66;;;14.34;44.55
18755;BME280;35061;47.664;9.166;2023-04-10T11:46:39;101908.58;;;14.32;44.43
18755;BME280;35061;47.664;9.166;2023-04-10T11:49:09;101908.68;;;14.37;45.06
18755;BME280;35061;47.664;9.166;2023-04-10T11:51:38;101905.90;;;14.43;45.07
18755;BME280;35061;47.664;9.166;2023-04-10T11:54:08;101904.43;;;14.48;44.78
18755;BME280;35061;47.664;9.166;2023-04-10T11:56:38;101900.05;;;14.52;44.14
18755;BME280;35061;47.664;9.166;2023-04-10T11:59:07;101894.39;;;14.58;44.11
18755;BME280;35061;47.664;9.166;2023-04-10T12:01:41;101885.04;;;14.63;42.20
18755;BME280;35061;47.664;9.166;2023-04-10T12:04:16;101897.07;;;14.62;42.73
18755;BME280;35061;47.664;9.166;2023-04-10T12:06:49;101889.42;;;14.59;41.41
18755;BME280;35061;47.664;9.166;2023-04-10T12:09:19;101892.30;;;14.59;40.96
18755;BME280;35061;47.664;9.166;2023-04-10T12:11:58;101880.98;;;14.55;40.10
18755;BME280;35061;47.664;9.166;2023-04-10T12:17:06;101874.90;;;14.53;39.14
18755;BME280;35061;47.664;9.166;2023-04-10T12:19:35;101872.91;;;14.59;39.45
18755;BME280;35061;47.664;9.166;2023-04-10T12:22:05;101875.09;;;14.64;39.22
18755;BME280;35061;47.664;9.166;2023-04-10T12:27:29;101866.89;;;14.72;37.72
18755;BME280;35061;47.664;9.166;2023-04-10T12:29:57;101864.17;;;14.69;35.40
18755;BME280;35061;47.664;9.166;2023-04-10T12:32:25;101859.01;;;14.73;36.74
18755;BME280;35061;47.664;9.166;2023-04-10T12:34:57;101858.62;;;14.80;36.77
18755;BME280;35061;47.664;9.166;2023-04-10T12:37:54;101857.41;;;14.87;36.21
18755;BME280;35061;47.664;9.166;2023-04-10T12:40:22;101850.15;;;14.91;34.09
18755;BME280;35061;47.664;9.166;2023-04-10T12:42:50;101856.82;;;14.98;34.80
18755;BME280;35061;47.664;9.166;2023-04-10T12:45:18;101852.83;;;15.10;35.04
18755;BME280;35061;47.664;9.166;2023-04-10T12:47:50;101838.57;;;15.21;34.83
18755;BME280;35061;47.664;9.166;2023-04-10T12:50:21;101831.57;;;15.28;32.12
18755;BME280;35061;47.664;9.166;2023-04-10T12:53:05;101824.28;;;15.33;32.84
18755;BME280;35061;47.664;9.166;2023-04-10T12:55:39;101819.90;;;15.38;30.75
18755;BME280;35061;47.664;9.166;2023-04-10T12:58:15;101821.96;;;15.37;32.16
18755;BME280;35061;47.664;9.166;2023-04-10T13:00:47;101820.45;;;15.42;31.04
18755;BME280;35061;47.664;9.166;2023-04-10T13:03:15;101812.09;;;15.44;31.16
18755;BME280;35061;47.664;9.166;2023-04-10T13:05:43;101808.23;;;15.47;30.88
18755;BME280;35061;47.664;9.166;2023-04-10T13:08:13;101811.59;;;15.45;30.09
18755;BME280;35061;47.664;9.166;2023-04-10T13:10:41;101813.75;;;15.51;29.94
18755;BME280;35061;47.664;9.166;2023-04-10T13:13:10;101801.42;;;15.50;29.60
18755;BME280;35061;47.664;9.166;2023-04-10T13:15:39;101802.60;;;15.58;29.57
18755;BME280;35061;47.664;9.166;2023-04-10T13:18:07;101797.59;;;15.59;28.95
18755;BME280;35061;47.664;9.166;2023-04-10T13:20:38;101803.98;;;15.63;29.02
18755;BME280;35061;47.664;9.166;2023-04-10T13:23:07;101791.38;;;15.66;28.34
18755;BME280;35061;47.664;9.166;2023-04-10T13:25:37;101798.02;;;15.72;28.32
18755;BME280;35061;47.664;9.166;2023-04-10T13:28:06;101788.41;;;15.81;27.94
18755;BME280;35061;47.664;9.166;2023-04-10T13:30:39;101783.47;;;15.87;27.80
18755;BME280;35061;47.664;9.166;2023-04-10T13:33:08;101787.04;;;15.97;27.11
18755;BME280;35061;47.664;9.166;2023-04-10T13:35:37;101784.23;;;16.03;27.57
18755;BME280;35061;47.664;9.166;2023-04-10T13:38:06;101782.69;;;16.08;26.37
18755;BME280;35061;47.664;9.166;2023-04-10T13:40:36;101774.80;;;16.08;26.75
18755;BME280;35061;47.664;9.166;2023-04-10T13:43:03;101773.56;;;16.15;27.57